Time;durP1;ratioP1;P1;durP2;ratioP2;P2;SDS_P1;SDS_P2;PMS_P1;PMS_P2;Temp;Humidity;BMP_temperature;BMP_pressure;BME280_temperature;BME280_humidity;BME280_pressure;Samples;Min_cycle;Max_cycle;Signal;HPM_P1;HPM_P2
2020/12/19 11:01:07;;;;;;;21.23;10.85;;;9.50;99.90;;;;;;5097730;27;20364;-73
2020/12/19 11:03:33;;;;;;;16.42;8.38;;;9.70;99.90;;;;;;5072120;28;20039;-73
2020/12/19 11:05:58;;;;;;;18.67;9.95;;;10.10;99.90;;;;;;5072977;28;20401;-73
2020/12/19 11:08:24;;;;;;;12.63;9.38;;;10.50;99.90;;;;;;5072022;28;20020;-74
2020/12/19 11:45:37;;;;;;;13.50;7.15;;;11.80;99.90;;;;;;5071198;28;20353;-72
2020/12/19 11:48:03;;;;;;;11.27;6.28;;;11.90;99.90;;;;;;5034556;28;20039;-74
2020/12/19 11:50:29;;;;;;;17.88;6.05;;;11.90;99.90;;;;;;5030453;28;20465;-73
2020/12/19 11:52:55;;;;;;;13.90;6.53;;;12.10;99.90;;;;;;5040105;28;20100;-74
2020/12/19 11:55:20;;;;;;;10.10;6.70;;;12.20;99.90;;;;;;5031657;28;20036;-73
2020/12/19 11:57:46;;;;;;;10.82;5.70;;;12.30;99.90;;;;;;5037051;28;20025;-73
2020/12/19 12:00:12;;;;;;;11.48;4.90;;;12.30;99.90;;;;;;5038718;28;20492;-74
2020/12/19 12:02:38;;;;;;;9.70;5.00;;;12.40;99.90;;;;;;5054768;28;20037;-74
2020/12/19 12:05:04;;;;;;;13.18;6.88;;;12.40;99.90;;;;;;5058397;28;20107;-75
2020/12/19 12:07:29;;;;;;;14.43;6.20;;;12.40;99.90;;;;;;5056993;28;20056;-73
2020/12/19 12:09:55;;;;;;;11.00;5.72;;;12.40;99.90;;;;;;5067207;28;20035;-74
2020/12/19 12:12:21;;;;;;;8.88;5.00;;;12.50;99.90;;;;;;5058260;28;20051;-74
2020/12/19 12:14:47;;;;;;;16.40;5.55;;;12.50;99.90;;;;;;5059627;28;20055;-74
2020/12/19 12:17:12;;;;;;;10.73;4.80;;;12.60;99.90;;;;;;5055469;28;20525;-73
2020/12/19 12:19:38;;;;;;;11.18;4.50;;;12.60;99.90;;;;;;5055356;28;20072;-73
2020/12/19 12:22:04;;;;;;;9.57;4.68;;;12.70;99.90;;;;;;5054661;28;20387;-73
2020/12/19 12:24:30;;;;;;;15.02;5.40;;;12.70;99.90;;;;;;5051906;28;20087;-72
2020/12/19 12:26:57;;;;;;;8.85;4.53;;;12.70;99.90;;;;;;5057445;28;20078;-72
2020/12/19 12:29:23;;;;;;;8.10;5.22;;;12.80;99.90;;;;;;5056304;28;20395;-73
2020/12/19 12:31:49;;;;;;;21.27;5.63;;;12.70;99.90;;;;;;5057501;28;20033;-74
2020/12/19 12:40:17;;;;;;;10.32;5.10;;;12.40;99.90;;;;;;5108030;27;20342;-76
2020/12/19 12:42:43;;;;;;;8.38;4.70;;;12.20;99.90;;;;;;5105353;28;20371;-75
2020/12/19 12:45:08;;;;;;;14.48;5.43;;;12.20;99.90;;;;;;5102522;28;20042;-76
2020/12/19 12:47:34;;;;;;;9.05;4.60;;;12.30;99.90;;;;;;5058572;28;20028;-75
2020/12/19 12:50:00;;;;;;;12.52;4.85;;;12.40;99.90;;;;;;5058324;28;20045;-76
2020/12/19 12:52:25;;;;;;;11.50;4.75;;;12.60;99.90;;;;;;5057794;28;20021;-75
2020/12/19 12:54:51;;;;;;;11.82;5.78;;;12.60;99.90;;;;;;5057830;28;20063;-75
2020/12/19 12:57:17;;;;;;;12.90;5.35;;;12.70;99.90;;;;;;5058373;28;20065;-76
2020/12/19 12:59:43;;;;;;;13.50;5.68;;;12.80;99.90;;;;;;5057044;28;20091;-75
2020/12/19 13:02:08;;;;;;;15.57;5.10;;;12.90;99.90;;;;;;5058971;28;20037;-74
2020/12/19 13:04:34;;;;;;;14.43;4.35;;;13.00;99.90;;;;;;5059023;28;20446;-76
2020/12/19 13:18:28;;;;;;;13.32;4.28;;;11.90;99.90;;;;;;5127680;27;20324;-77
2020/12/19 13:20:54;;;;;;;10.43;3.58;;;11.70;99.90;;;;;;5105012;28;20047;-77
2020/12/19 13:23:19;;;;;;;12.30;4.65;;;11.90;99.90;;;;;;5092970;28;20035;-72
2020/12/19 13:25:47;;;;;;;8.25;3.67;;;12.10;99.90;;;;;;5102087;28;20063;-73
2020/12/19 13:28:13;;;;;;;12.20;4.68;;;12.40;99.90;;;;;;5096297;28;20107;-72
2020/12/19 13:30:38;;;;;;;13.60;4.35;;;12.50;99.90;;;;;;5091844;28;20453;-73
2020/12/19 13:33:04;;;;;;;15.45;4.57;;;12.50;99.90;;;;;;5080720;28;20028;-72
2020/12/19 13:35:30;;;;;;;10.55;5.15;;;12.60;99.90;;;;;;5073423;28;20037;-74
2020/12/19 13:37:56;;;;;;;12.20;4.28;;;12.70;99.90;;;;;;5077398;28;20024;-73
2020/12/19 14:21:28;;;;;;;13.50;4.40;;;10.70;99.90;;;;;;5080456;27;20382;-76
2020/12/19 14:23:54;;;;;;;14.00;4.85;;;10.90;99.90;;;;;;5083123;28;20021;-75
2020/12/19 14:26:24;;;;;;;11.55;5.55;;;11.20;99.90;;;;;;5071229;28;20048;-75
2020/12/19 14:28:50;;;;;;;14.07;4.82;;;11.60;99.90;;;;;;5061464;28;20077;-77
2020/12/19 14:31:16;;;;;;;15.45;3.90;;;11.90;99.90;;;;;;5069880;28;20460;-76
2020/12/19 14:33:42;;;;;;;8.88;4.03;;;12.20;99.90;;;;;;5060832;28;20029;-77
2020/12/19 14:36:12;;;;;;;9.88;4.20;;;12.40;99.90;;;;;;5060309;28;20365;-77
2020/12/19 14:38:38;;;;;;;14.20;4.10;;;12.60;99.90;;;;;;5065751;28;20119;-76
